Time;durP1;ratioP1;P1;durP2;ratioP2;P2;SDS_P1;SDS_P2;PMS_P1;PMS_P2;Temp;Humidity;BMP_temperature;BMP_pressure;BME280_temperature;BME280_humidity;BME280_pressure;Samples;Min_cycle;Max_cycle;Signal;HPM_P1;HPM_P2
2024/03/12 00:00:17;;;;;;;0.50;0.50;;;;;;;12.48;81.53;96502.53;5064367;28;20420;-76
2024/03/12 00:02:45;;;;;;;0.60;0.60;;;;;;;11.95;82.20;96437.78;5065674;28;20052;-75
2024/03/12 00:05:18;;;;;;;0.50;0.50;;;;;;;12.61;81.91;96502.94;5047491;28;20068;-75
2024/03/12 00:07:46;;;;;;;0.50;0.50;;;;;;;12.40;81.41;96453.72;5046981;28;20497;-75
2024/03/12 00:10:19;;;;;;;0.50;0.50;;;;;;;12.24;83.37;96478.28;5063182;28;20132;-74
2024/03/12 00:12:47;;;;;;;0.50;0.50;;;;;;;12.06;84.92;96483.03;5064509;28;20057;-75
2024/03/12 00:15:17;;;;;;;0.50;0.50;;;;;;;12.13;85.18;96469.16;5046505;28;20060;-74
2024/03/12 00:17:44;;;;;;;0.50;0.50;;;;;;;12.23;84.86;96465.63;5064768;28;20060;-75
2024/03/12 00:20:17;;;;;;;0.50;0.50;;;;;;;11.47;86.00;96356.03;5064302;28;20057;-75
2024/03/12 00:22:49;;;;;;;0.60;0.60;;;;;;;12.07;86.47;96442.97;5046291;28;20523;-75
2024/03/12 00:25:20;;;;;;;0.50;0.50;;;;;;;10.51;87.98;96271.75;5062921;28;20407;-76
2024/03/12 00:27:48;;;;;;;0.50;0.50;;;;;;;11.82;87.38;96439.38;5064547;28;20045;-75
2024/03/12 00:30:15;;;;;;;0.50;0.50;;;;;;;11.39;86.34;96359.97;5064184;28;20123;-75
2024/03/12 00:32:43;;;;;;;0.47;0.47;;;;;;;12.08;87.33;96466.75;5064457;28;20067;-76
2024/03/12 00:35:10;;;;;;;0.52;0.52;;;;;;;12.26;86.13;96452.91;5063863;28;20059;-76
2024/03/12 00:37:41;;;;;;;0.50;0.50;;;;;;;12.14;84.98;96413.22;5064121;28;20550;-75
2024/03/12 00:40:12;;;;;;;0.60;0.60;;;;;;;11.56;85.96;96359.22;5046272;28;20147;-75
2024/03/12 00:42:42;;;;;;;0.50;0.50;;;;;;;11.95;86.51;96426.69;5064154;28;20052;-75
2024/03/12 00:45:13;;;;;;;0.50;0.50;;;;;;;10.81;87.53;96274.28;5063604;28;20052;-76
2024/03/12 00:47:43;;;;;;;0.50;0.50;;;;;;;11.31;88.91;96353.63;5064687;28;20052;-75
2024/03/12 00:50:11;;;;;;;0.50;0.50;;;;;;;11.40;87.01;96319.94;5063867;28;20088;-76
2024/03/12 00:52:38;;;;;;;0.60;0.60;;;;;;;11.88;86.21;96390.63;5064169;28;20054;-76
2024/03/12 00:55:09;;;;;;;0.50;0.50;;;;;;;12.20;86.42;96427.53;5063562;28;20048;-76
2024/03/12 00:57:38;;;;;;;0.50;0.50;;;;;;;12.24;86.00;96439.41;5063512;28;20503;-75
2024/03/12 01:00:16;;;;;;;0.57;0.57;;;;;;;12.38;85.44;96414.44;5063740;28;20055;-75
2024/03/12 01:02:49;;;;;;;0.50;0.50;;;;;;;12.13;84.81;96383.09;5045679;28;20063;-74
2024/03/12 01:05:17;;;;;;;0.52;0.52;;;;;;;11.45;85.02;96253.81;5063592;28;20140;-74
2024/03/12 01:07:45;;;;;;;0.50;0.50;;;;;;;12.37;85.47;96409.28;5045460;28;20151;-74
2024/03/12 01:10:12;;;;;;;0.50;0.50;;;;;;;11.96;87.37;96433.84;5063569;28;20520;-74
2024/03/12 01:12:39;;;;;;;0.52;0.52;;;;;;;12.01;87.84;96391.81;5062858;28;20507;-75
2024/03/12 01:15:09;;;;;;;0.50;0.50;;;;;;;12.08;88.01;96398.16;5045269;28;20053;-75
2024/03/12 01:17:37;;;;;;;0.50;0.50;;;;;;;12.05;87.11;96364.84;5064180;28;20052;-74
2024/03/12 01:20:09;;;;;;;0.50;0.50;;;;;;;12.18;87.72;96396.59;5063031;28;20052;-76
2024/03/12 01:22:37;;;;;;;0.60;0.60;;;;;;;11.95;87.57;96340.66;5063029;28;20584;-74
2024/03/12 01:25:10;;;;;;;0.60;0.60;;;;;;;11.60;87.39;96288.69;5062767;28;20084;-76
2024/03/12 01:27:38;;;;;;;0.60;0.60;;;;;;;11.97;87.96;96355.72;5045209;28;20052;-74
2024/03/12 01:30:07;;;;;;;0.60;0.60;;;;;;;11.33;88.31;96272.81;5062718;28;20052;-75
2024/03/12 01:32:38;;;;;;;0.60;0.60;;;;;;;11.90;87.07;96307.75;5062662;28;20061;-76
2024/03/12 01:35:08;;;;;;;0.60;0.60;;;;;;;11.82;86.46;96306.19;5044835;28;20063;-75
2024/03/12 01:37:43;;;;;;;0.60;0.60;;;;;;;12.14;86.18;96340.25;5062713;28;20581;-72
2024/03/12 01:40:25;;;;;;;0.60;0.60;;;;;;;11.55;86.62;96257.78;5062726;28;20420;-73
2024/03/12 01:42:56;;;;;;;0.50;0.50;;;;;;;12.08;88.45;96370.41;5062689;28;20056;-73
2024/03/12 01:45:25;;;;;;;0.50;0.50;;;;;;;12.14;88.51;96351.34;5061107;28;20052;-73
2024/03/12 01:47:55;;;;;;;0.50;0.50;;;;;;;11.74;88.69;96307.38;5062707;28;20131;-73
2024/03/12 01:50:24;;;;;;;0.50;0.50;;;;;;;11.72;91.51;96368.00;5044641;28;20340;-73
2024/03/12 01:53:05;;;;;;;0.50;0.50;;;;;;;11.39;93.04;96335.81;5045505;28;20449;-73
2024/03/12 01:55:34;;;;;;;0.52;0.52;;;;;;;11.67;93.00;96337.84;5063141;28;20130;-73
2024/03/12 01:58:02;;;;;;;0.50;0.50;;;;;;;11.75;92.52;96340.25;5062568;28;20087;-73
2024/03/12 02:00:32;;;;;;;0.50;0.50;;;;;;;11.58;92.79;96356.84;5062678;28;20064;-73
2024/03/12 02:03:00;;;;;;;0.50;0.50;;;;;;;11.11;93.58;96276.72;5044710;28;20064;-73
2024/03/12 02:05:26;;;;;;;0.50;0.50;;;;;;;11.41;91.89;96313.22;5044581;28;20118;-73
2024/03/12 07:09:15;;;;;;;0.40;0.40;;;;;;;10.07;100.00;96307.09;5074854;27;413671;-74
2024/03/12 07:11:42;;;;;;;0.50;0.50;;;;;;;7.55;100.00;95991.53;5060415;27;20505;-64
2024/03/12 07:17:07;;;;;;;0.50;0.50;;;;;;;10.59;100.00;96336.28;5045697;27;20046;-68
2024/03/12 07:19:35;;;;;;;0.50;0.50;;;;;;;10.80;100.00;96296.78;5058631;28;20524;-66
2024/03/12 07:22:01;;;;;;;0.50;0.50;;;;;;;9.74;100.00;96138.50;5048445;27;20445;-70
2024/03/12 07:24:29;;;;;;;0.50;0.50;;;;;;;10.96;100.00;96253.72;5058928;28;20059;-68
2024/03/12 07:26:56;;;;;;;0.50;0.50;;;;;;;12.01;100.00;96347.41;5060802;28;20509;-67
2024/03/12 07:29:23;;;;;;;0.50;0.50;;;;;;;12.28;100.00;96345.81;5060420;27;20054;-64
2024/03/12 07:31:51;;;;;;;0.57;0.57;;;;;;;11.98;100.00;96253.84;5047498;28;20048;-64
2024/03/12 07:34:20;;;;;;;0.50;0.50;;;;;;;12.63;100.00;96317.97;5060502;28;20488;-76
2024/03/12 07:36:48;;;;;;;0.57;0.57;;;;;;;13.00;100.00;96337.72;5061539;27;20044;-72
2024/03/12 07:39:31;;;;;;;0.50;0.50;;;;;;;12.91;100.00;96308.75;5058824;28;20182;-64
2024/03/12 07:42:08;;;;;;;0.50;0.50;;;;;;;13.40;98.47;96342.69;5041190;28;20052;-72
2024/03/12 07:44:39;;;;;;;0.55;0.55;;;;;;;13.65;98.92;96346.16;5058531;28;20051;-71
2024/03/12 07:47:06;;;;;;;0.60;0.60;;;;;;;13.03;94.89;96220.16;5055196;28;20050;-72
2024/03/12 07:49:36;;;;;;;0.50;0.50;;;;;;;14.15;96.03;96356.91;5061376;28;20046;-70
2024/03/12 07:52:05;;;;;;;0.60;0.60;;;;;;;13.99;89.99;96353.88;5051569;28;20067;-71
2024/03/12 07:54:33;;;;;;;0.60;0.60;;;;;;;14.18;90.57;96350.53;5060533;27;20048;-70
2024/03/12 07:57:00;;;;;;;0.60;0.60;;;;;;;13.74;90.41;96314.28;5075768;27;20048;-63
2024/03/12 07:59:31;;;;;;;0.60;0.60;;;;;;;13.88;91.10;96286.34;5079607;28;20553;-70
2024/03/12 08:01:58;;;;;;;0.60;0.60;;;;;;;14.10;89.90;96298.88;5064452;28;20472;-73
2024/03/12 08:04:26;;;;;;;0.60;0.60;;;;;;;14.34;89.43;96336.88;5057219;28;20519;-64
2024/03/12 08:06:54;;;;;;;0.70;0.70;;;;;;;11.85;87.16;95941.91;5055011;28;20059;-71
2024/03/12 08:09:21;;;;;;;0.60;0.60;;;;;;;14.89;87.82;96329.94;5057652;28;20712;-73
2024/03/12 08:11:48;;;;;;;0.70;0.70;;;;;;;14.10;81.44;96188.25;5066983;28;20045;-71
2024/03/12 08:14:17;;;;;;;0.60;0.60;;;;;;;13.96;77.62;96210.69;5072650;28;20048;-70
2024/03/12 08:16:44;;;;;;;0.70;0.70;;;;;;;14.73;77.57;96348.47;5043118;28;20512;-72
2024/03/12 08:19:12;;;;;;;0.70;0.70;;;;;;;14.99;79.76;96342.19;5055970;28;20063;-72
2024/03/12 08:21:39;;;;;;;0.70;0.70;;;;;;;13.91;81.36;96208.34;5049519;28;20175;-71
2024/03/12 08:24:07;;;;;;;0.70;0.70;;;;;;;14.58;84.62;96358.16;5059223;28;20107;-66
2024/03/12 08:26:34;;;;;;;0.70;0.70;;;;;;;14.62;86.16;96359.69;5050380;28;20049;-64
2024/03/12 08:29:01;;;;;;;0.60;0.60;;;;;;;14.31;82.51;96310.66;5024833;28;20057;-69
2024/03/12 08:31:28;;;;;;;0.65;0.65;;;;;;;14.37;83.83;96291.50;5041542;28;20613;-71
2024/03/12 08:34:09;;;;;;;0.60;0.60;;;;;;;12.83;91.31;96319.09;5050544;28;20450;-62
2024/03/12 08:36:36;;;;;;;0.50;0.50;;;;;;;13.16;91.63;96379.78;5045437;28;20044;-67
2024/03/12 08:39:04;;;;;;;0.60;0.60;;;;;;;12.70;89.18;96223.47;5043780;28;20136;-67
2024/03/12 08:41:32;;;;;;;0.50;0.50;;;;;;;13.77;90.46;96369.91;5043695;28;20109;-67
2024/03/12 08:44:00;;;;;;;0.60;0.60;;;;;;;13.43;86.20;96230.63;5055078;28;20058;-62
2024/03/12 08:46:28;;;;;;;0.60;0.60;;;;;;;13.69;85.40;96335.78;5055379;28;20099;-73
2024/03/12 08:48:55;;;;;;;0.60;0.60;;;;;;;14.40;84.68;96358.31;5062302;28;20549;-63
2024/03/12 08:51:23;;;;;;;0.60;0.60;;;;;;;14.78;83.19;96351.56;5053301;28;20056;-70
2024/03/12 08:53:51;;;;;;;0.60;0.60;;;;;;;14.97;83.60;96347.38;5064040;28;20103;-67
2024/03/12 08:56:21;;;;;;;0.70;0.70;;;;;;;14.80;78.96;96317.69;5063096;28;20202;-66
2024/03/12 08:58:49;;;;;;;0.65;0.65;;;;;;;14.22;81.13;96340.16;5062824;28;20048;-69
2024/03/12 09:01:18;;;;;;;0.60;0.60;;;;;;;14.29;81.64;96368.00;5059653;28;20056;-69
2024/03/12 09:03:46;;;;;;;0.70;0.70;;;;;;;15.04;86.03;96352.91;5062992;28;20801;-70
2024/03/12 09:06:13;;;;;;;0.65;0.65;;;;;;;15.70;81.52;96351.28;5053088;28;20068;-75
2024/03/12 09:08:41;;;;;;;0.68;0.68;;;;;;;15.70;79.64;96348.47;5043164;28;20065;-71
2024/03/12 09:11:15;;;;;;;0.60;0.60;;;;;;;16.05;74.19;96349.94;5052773;28;20118;-68
2024/03/12 09:13:45;;;;;;;0.70;0.70;;;;;;;15.59;77.37;96294.00;5050420;28;20167;-67
2024/03/12 09:16:12;;;;;;;0.65;0.65;;;;;;;14.55;79.16;96297.66;5046685;28;20052;-68
2024/03/12 09:18:43;;;;;;;0.70;0.70;;;;;;;14.76;81.22;96336.47;5039485;28;20049;-72
2024/03/12 09:21:14;;;;;;;0.65;0.65;;;;;;;12.98;86.89;96217.75;5040985;28;20464;-77
2024/03/12 09:23:42;;;;;;;0.60;0.60;;;;;;;14.03;89.33;96340.69;5039450;28;20131;-73
2024/03/12 09:26:22;;;;;;;0.60;0.60;;;;;;;14.37;87.82;96280.34;5041297;28;20064;-74
2024/03/12 09:28:49;;;;;;;0.70;0.70;;;;;;;15.18;81.90;96336.78;5040218;28;20443;-64
2024/03/12 09:31:18;;;;;;;0.60;0.60;;;;;;;14.06;78.51;96137.41;5041125;28;20523;-71
2024/03/12 09:33:45;;;;;;;0.70;0.70;;;;;;;15.84;78.64;96328.72;5042714;28;20056;-70
2024/03/12 09:36:15;;;;;;;0.63;0.63;;;;;;;15.07;74.73;96162.38;5042431;28;20061;-72
2024/03/12 09:38:44;;;;;;;0.70;0.70;;;;;;;16.22;72.39;96327.31;5044640;28;20056;-74
2024/03/12 09:41:15;;;;;;;0.60;0.60;;;;;;;16.08;71.54;96294.03;5041692;28;20056;-68
2024/03/12 09:43:46;;;;;;;0.60;0.60;;;;;;;16.57;71.38;96342.72;5040015;28;20506;-69
2024/03/12 09:46:16;;;;;;;0.65;0.65;;;;;;;16.90;69.50;96318.56;5040771;28;20091;-68
2024/03/12 09:48:44;;;;;;;0.80;0.80;;;;;;;16.46;67.04;96247.06;5041965;28;20140;-76
2024/03/12 09:51:12;;;;;;;0.70;0.70;;;;;;;16.66;66.70;96283.47;5040533;28;20053;-66
2024/03/12 09:53:41;;;;;;;0.70;0.70;;;;;;;16.57;66.84;96237.28;5040759;28;20427;-76
2024/03/12 09:56:10;;;;;;;0.70;0.70;;;;;;;16.15;67.32;96293.91;5039376;28;20138;-78
2024/03/12 09:58:38;;;;;;;0.70;0.70;;;;;;;16.12;65.80;96199.75;5035892;28;20060;-66
2024/03/12 10:01:06;;;;;;;0.70;0.70;;;;;;;17.08;63.89;96271.41;5039187;28;20079;-75
2024/03/12 10:03:36;;;;;;;0.70;0.70;;;;;;;17.87;65.30;96292.47;5037484;28;20152;-65
2024/03/12 10:06:06;;;;;;;0.77;0.77;;;;;;;18.20;61.94;96254.84;5038049;28;20110;-68
2024/03/12 10:08:34;;;;;;;0.70;0.70;;;;;;;18.70;63.16;96279.59;5038145;28;20065;-68
2024/03/12 10:11:07;;;;;;;0.70;0.70;;;;;;;18.42;60.65;96264.31;5040320;28;20376;-75
2024/03/12 10:13:38;;;;;;;0.70;0.70;;;;;;;17.64;60.04;96180.59;5040219;28;20052;-76
2024/03/12 10:16:07;;;;;;;0.70;0.70;;;;;;;18.23;62.80;96296.00;5042603;28;20052;-67
2024/03/12 10:18:34;;;;;;;0.70;0.70;;;;;;;18.09;63.86;96290.75;5040466;28;20057;-76
2024/03/12 10:21:02;;;;;;;0.70;0.70;;;;;;;18.36;63.60;96322.13;5041894;28;20318;-66
2024/03/12 10:23:34;;;;;;;0.70;0.70;;;;;;;18.31;62.44;96274.97;5041832;28;20456;-78
2024/03/12 10:26:12;;;;;;;0.70;0.70;;;;;;;18.23;61.75;96239.94;5042074;28;20429;-66
2024/03/12 10:28:40;;;;;;;0.70;0.70;;;;;;;18.72;62.47;96277.91;5056239;28;20056;-67
2024/03/12 10:31:09;;;;;;;0.73;0.73;;;;;;;18.68;59.16;96260.41;5052658;28;20118;-65
2024/03/12 10:33:42;;;;;;;0.80;0.80;;;;;;;18.94;57.88;96278.91;5048740;28;20123;-69
2024/03/12 10:36:11;;;;;;;0.80;0.80;;;;;;;18.45;58.36;96260.63;5051097;28;20055;-68
2024/03/12 10:38:39;;;;;;;0.70;0.70;;;;;;;18.37;58.92;96225.53;5058086;28;20048;-73
2024/03/12 10:41:28;;;;;;;0.73;0.73;;;;;;;18.64;59.16;96265.31;5051950;28;20571;-64
2024/03/12 10:44:10;;;;;;;0.80;0.80;;;;;;;18.48;56.78;96273.75;5042035;28;20458;-73
2024/03/12 10:46:43;;;;;;;0.73;0.73;;;;;;;17.24;60.46;96263.09;5022330;28;20049;-66
2024/03/12 10:49:12;;;;;;;0.70;0.70;;;;;;;16.63;63.56;96206.03;5059902;28;20139;-66
2024/03/12 10:51:40;;;;;;;0.70;0.70;;;;;;;17.40;65.18;96265.94;5059712;28;20467;-63
2024/03/12 10:54:11;;;;;;;0.70;0.70;;;;;;;16.92;62.54;96135.06;5059792;28;20056;-75
2024/03/12 10:56:39;;;;;;;0.70;0.70;;;;;;;17.00;65.82;96230.81;5059104;28;20048;-69
2024/03/12 10:59:07;;;;;;;0.70;0.70;;;;;;;17.14;66.44;96258.50;5058764;28;20072;-74
2024/03/12 11:01:35;;;;;;;0.70;0.70;;;;;;;15.26;65.78;96033.34;5055231;28;20048;-72
2024/03/12 11:04:05;;;;;;;0.80;0.80;;;;;;;16.24;69.30;96201.94;5052614;28;20049;-78
2024/03/12 11:06:36;;;;;;;0.70;0.70;;;;;;;17.11;67.85;96254.56;5061046;28;20139;-68
2024/03/12 11:09:07;;;;;;;0.70;0.70;;;;;;;17.61;65.64;96243.84;5061230;28;20644;-65
2024/03/12 11:11:34;;;;;;;0.70;0.70;;;;;;;17.44;64.96;96202.22;5061544;28;20102;-65
2024/03/12 11:14:02;;;;;;;0.70;0.70;;;;;;;16.32;67.20;96227.75;5060988;28;20384;-65
2024/03/12 11:16:35;;;;;;;0.70;0.70;;;;;;;15.81;67.73;96161.22;5055670;28;20505;-66
2024/03/12 11:19:25;;;;;;;0.70;0.70;;;;;;;14.90;70.50;96141.13;5049095;28;20135;-66
2024/03/12 11:21:53;;;;;;;0.60;0.60;;;;;;;16.08;69.88;96218.59;5059892;28;20059;-74
2024/03/12 11:24:43;;;;;;;0.70;0.70;;;;;;;16.26;72.35;96233.03;5061099;28;20063;-76
2024/03/12 11:27:20;;;;;;;0.60;0.60;;;;;;;16.41;69.72;96228.75;5061588;28;20185;-73
2024/03/12 11:29:59;;;;;;;0.77;0.77;;;;;;;16.55;69.53;96227.72;5061853;28;20453;-65
2024/03/12 11:32:29;;;;;;;0.70;0.70;;;;;;;16.56;69.28;96224.53;5061615;28;20044;-70
2024/03/12 11:34:56;;;;;;;0.77;0.77;;;;;;;16.52;68.66;96151.09;5056074;28;20442;-64
2024/03/12 11:37:24;;;;;;;0.60;0.60;;;;;;;16.71;66.13;96159.91;5056615;28;20048;-63
2024/03/12 11:40:28;;;;;;;0.68;0.68;;;;;;;17.75;63.86;96214.75;5060256;28;20075;-64
2024/03/12 11:42:57;;;;;;;0.80;0.80;;;;;;;18.00;62.92;96214.91;5041980;28;20060;-69
2024/03/12 11:45:48;;;;;;;0.80;0.80;;;;;;;17.45;59.96;96108.66;5060689;28;20123;-66
2024/03/12 11:48:20;;;;;;;0.80;0.80;;;;;;;17.75;63.13;96209.13;5061070;28;20495;-72
2024/03/12 11:50:59;;;;;;;0.70;0.70;;;;;;;17.52;65.60;96206.47;5065359;28;20544;-67
2024/03/12 11:53:36;;;;;;;0.65;0.65;;;;;;;17.56;66.95;96202.38;5060038;28;20938;-69
2024/03/12 11:56:05;;;;;;;0.70;0.70;;;;;;;17.40;67.23;96201.53;5063782;28;20060;-65
2024/03/12 11:58:49;;;;;;;0.70;0.70;;;;;;;17.23;68.16;96199.94;5064517;28;20052;-67
2024/03/12 12:01:19;;;;;;;0.70;0.70;;;;;;;16.97;69.28;96192.50;5064126;28;20047;-70
2024/03/12 12:03:54;;;;;;;0.70;0.70;;;;;;;16.47;69.95;96159.97;5064716;28;20067;-70
2024/03/12 12:06:21;;;;;;;0.70;0.70;;;;;;;16.27;72.20;96161.94;5064145;28;20431;-68
2024/03/12 12:08:48;;;;;;;0.70;0.70;;;;;;;16.35;74.93;96157.81;5048797;28;20179;-66
2024/03/12 12:11:25;;;;;;;0.70;0.70;;;;;;;14.85;78.79;96002.19;5060110;28;20168;-76
2024/03/12 12:13:57;;;;;;;0.70;0.70;;;;;;;14.85;81.09;96071.88;5063313;28;20048;-66
2024/03/12 12:16:28;;;;;;;0.70;0.70;;;;;;;15.38;83.24;96171.50;5060651;28;20052;-68
2024/03/12 12:19:06;;;;;;;0.70;0.70;;;;;;;15.46;87.53;96193.31;5064702;28;20443;-67
2024/03/12 12:21:35;;;;;;;0.63;0.63;;;;;;;15.03;90.42;96164.44;5061175;28;20127;-66
2024/03/12 12:24:03;;;;;;;0.70;0.70;;;;;;;14.53;92.28;96161.53;5064841;28;20147;-69
2024/03/12 12:26:36;;;;;;;0.70;0.70;;;;;;;14.49;92.68;96183.09;5065366;28;20060;-71
2024/03/12 12:29:03;;;;;;;0.60;0.60;;;;;;;14.45;95.34;96181.53;5062289;28;20053;-72
2024/03/12 12:31:35;;;;;;;0.60;0.60;;;;;;;14.36;96.45;96184.03;5064334;28;20515;-72
2024/03/12 12:34:05;;;;;;;0.60;0.60;;;;;;;14.33;97.36;96187.66;5063308;28;20047;-73
2024/03/12 12:36:36;;;;;;;0.60;0.60;;;;;;;14.22;95.83;96192.53;5064236;28;20122;-73
2024/03/12 12:39:09;;;;;;;0.60;0.60;;;;;;;13.85;96.65;96150.75;5064592;28;20045;-74
2024/03/12 12:41:42;;;;;;;0.60;0.60;;;;;;;13.80;96.69;96128.94;5064669;28;20704;-73
2024/03/12 12:44:15;;;;;;;0.60;0.60;;;;;;;13.92;98.62;96145.91;5064332;28;20864;-73
2024/03/12 12:46:43;;;;;;;0.60;0.60;;;;;;;14.25;100.00;96183.38;5064072;28;20060;-70
2024/03/12 12:49:12;;;;;;;0.70;0.70;;;;;;;14.26;98.28;96187.72;5062338;28;20143;-72
2024/03/12 12:51:41;;;;;;;0.60;0.60;;;;;;;13.95;98.73;96169.34;5064164;28;20105;-74
2024/03/12 12:54:09;;;;;;;0.70;0.70;;;;;;;13.68;97.42;96128.25;5064082;28;20056;-69
2024/03/12 12:56:41;;;;;;;0.60;0.60;;;;;;;14.08;95.37;96209.38;5063092;28;20087;-70
2024/03/12 12:59:15;;;;;;;0.60;0.60;;;;;;;13.86;93.51;96211.59;5064513;28;20050;-70
2024/03/12 13:01:42;;;;;;;0.50;0.50;;;;;;;13.53;91.66;96198.38;5064780;28;20594;-70
2024/03/12 13:04:26;;;;;;;0.50;0.50;;;;;;;12.93;90.91;96137.56;5079480;28;20270;-71
2024/03/12 13:06:55;;;;;;;0.50;0.50;;;;;;;12.52;94.66;96108.09;5063490;28;20048;-66
2024/03/12 13:09:35;;;;;;;0.50;0.50;;;;;;;12.75;92.96;96214.72;5056924;28;20070;-68
2024/03/12 13:12:07;;;;;;;0.50;0.50;;;;;;;12.23;95.82;96204.63;5063098;28;20052;-68
2024/03/12 13:14:37;;;;;;;0.60;0.60;;;;;;;11.86;97.80;96169.00;5063760;28;20102;-68
2024/03/12 13:17:05;;;;;;;0.50;0.50;;;;;;;11.85;96.61;96188.84;5063431;28;20541;-69
2024/03/12 13:19:32;;;;;;;0.52;0.52;;;;;;;12.22;98.62;96214.13;5042142;28;20531;-69
2024/03/12 13:22:00;;;;;;;0.60;0.60;;;;;;;12.17;95.92;96217.31;5041990;28;20147;-70
2024/03/12 13:24:29;;;;;;;0.57;0.57;;;;;;;12.21;98.13;96190.34;5063097;28;20052;-69
2024/03/12 13:26:57;;;;;;;0.50;0.50;;;;;;;12.18;95.99;96174.47;5063459;28;20045;-70
2024/03/12 13:29:25;;;;;;;0.60;0.60;;;;;;;12.79;94.63;96215.47;5063320;28;20400;-71
2024/03/12 13:31:53;;;;;;;0.60;0.60;;;;;;;13.08;91.36;96200.28;5063910;28;20504;-74
2024/03/12 13:34:20;;;;;;;0.60;0.60;;;;;;;13.20;89.25;96152.50;5064018;28;20056;-71
2024/03/12 13:36:47;;;;;;;0.60;0.60;;;;;;;13.80;88.25;96165.13;5063658;28;20434;-71
2024/03/12 13:39:15;;;;;;;0.60;0.60;;;;;;;14.40;85.52;96185.56;5063459;28;20048;-68
2024/03/12 13:41:42;;;;;;;0.68;0.68;;;;;;;14.50;79.14;96139.28;5063434;28;20118;-69
2024/03/12 13:44:09;;;;;;;0.70;0.70;;;;;;;15.25;77.29;96201.97;5063165;28;20055;-70
2024/03/12 13:46:36;;;;;;;0.70;0.70;;;;;;;15.42;74.79;96178.63;5063108;28;20072;-72
2024/03/12 13:49:13;;;;;;;0.60;0.60;;;;;;;15.37;76.98;96197.81;5063175;28;20056;-72
2024/03/12 13:51:42;;;;;;;0.70;0.70;;;;;;;12.82;75.17;95764.47;5046825;28;20049;-75
2024/03/12 13:54:10;;;;;;;0.70;0.70;;;;;;;15.41;73.93;96187.41;5062861;28;20059;-73
2024/03/12 13:56:37;;;;;;;0.70;0.70;;;;;;;15.69;76.34;96187.75;5058276;28;20103;-74
2024/03/12 13:59:07;;;;;;;0.60;0.60;;;;;;;15.04;74.93;96101.88;5048196;28;20057;-76
2024/03/12 14:01:34;;;;;;;0.60;0.60;;;;;;;14.69;74.46;96035.50;5061022;28;20056;-76
2024/03/12 14:04:01;;;;;;;0.70;0.70;;;;;;;15.40;74.36;96141.16;5062855;28;20088;-76
2024/03/12 14:06:30;;;;;;;0.70;0.70;;;;;;;15.36;75.09;96176.69;5061000;28;20137;-70
2024/03/12 14:08:57;;;;;;;0.70;0.70;;;;;;;13.96;76.44;95909.22;5060824;28;20079;-71
2024/03/12 14:11:26;;;;;;;0.60;0.60;;;;;;;15.79;73.59;96170.00;5063422;28;20056;-70
2024/03/12 14:13:55;;;;;;;0.70;0.70;;;;;;;15.58;74.54;96153.66;5064963;28;20586;-73
2024/03/12 14:16:23;;;;;;;0.63;0.63;;;;;;;15.25;74.89;96065.28;5062094;28;20530;-70
2024/03/12 14:18:52;;;;;;;0.65;0.65;;;;;;;16.11;73.63;96231.72;5060940;28;20490;-70
2024/03/12 14:21:19;;;;;;;0.70;0.70;;;;;;;16.22;69.62;96184.00;5063052;28;20056;-69
2024/03/12 14:23:47;;;;;;;0.70;0.70;;;;;;;16.36;68.98;96181.72;5062449;28;20124;-70
2024/03/12 14:26:17;;;;;;;0.70;0.70;;;;;;;15.89;68.00;96157.88;5062368;28;20044;-70
2024/03/12 14:28:45;;;;;;;0.70;0.70;;;;;;;15.43;71.28;96185.78;5063014;28;20060;-70
2024/03/12 14:31:16;;;;;;;0.70;0.70;;;;;;;14.36;78.88;96186.81;5062713;28;20067;-73
2024/03/12 14:33:43;;;;;;;0.65;0.65;;;;;;;14.41;80.45;96184.38;5061129;28;20045;-70
2024/03/12 14:36:10;;;;;;;0.60;0.60;;;;;;;14.34;83.43;96175.28;5062444;28;20520;-71
2024/03/12 14:38:37;;;;;;;0.60;0.60;;;;;;;14.83;81.50;96185.81;5062319;28;20063;-70
2024/03/12 14:41:05;;;;;;;0.60;0.60;;;;;;;15.01;79.09;96180.81;5062143;28;20139;-70
2024/03/12 14:43:33;;;;;;;0.70;0.70;;;;;;;15.22;80.27;96180.50;5062026;28;20509;-70
2024/03/12 14:46:01;;;;;;;0.63;0.63;;;;;;;14.07;81.51;96107.56;5061950;28;20539;-70
2024/03/12 14:48:28;;;;;;;0.60;0.60;;;;;;;14.05;84.18;96169.25;5060850;28;20136;-71
2024/03/12 14:50:56;;;;;;;0.60;0.60;;;;;;;14.03;85.21;96184.75;5072075;28;20588;-70
2024/03/12 14:53:23;;;;;;;0.60;0.60;;;;;;;13.72;83.97;96183.09;5062302;28;20040;-70
2024/03/12 14:55:49;;;;;;;0.60;0.60;;;;;;;13.41;83.31;96146.78;5062360;28;20050;-70
2024/03/12 14:58:17;;;;;;;0.70;0.70;;;;;;;13.95;84.37;96180.47;5062411;28;20056;-69
2024/03/12 15:00:44;;;;;;;0.60;0.60;;;;;;;14.13;83.46;96239.56;5062453;28;20048;-71
2024/03/12 15:03:12;;;;;;;0.60;0.60;;;;;;;13.59;83.88;96155.75;5062486;28;20515;-69
2024/03/12 15:05:39;;;;;;;0.60;0.60;;;;;;;14.30;84.47;96191.28;5077559;28;20157;-70
2024/03/12 15:08:10;;;;;;;0.60;0.60;;;;;;;14.55;83.89;96194.56;5062766;28;20056;-70
2024/03/12 15:10:37;;;;;;;0.70;0.70;;;;;;;14.29;82.88;96122.84;5062349;28;20052;-69
2024/03/12 15:13:05;;;;;;;0.60;0.60;;;;;;;14.62;80.84;96147.09;5063060;28;20060;-69
2024/03/12 15:15:32;;;;;;;0.60;0.60;;;;;;;13.39;81.49;96087.19;5062008;28;20056;-71
2024/03/12 15:18:01;;;;;;;0.63;0.63;;;;;;;14.50;81.85;96200.59;5062103;28;20439;-70
2024/03/12 15:20:29;;;;;;;0.70;0.70;;;;;;;14.71;82.41;96203.13;5061921;28;20507;-69
2024/03/12 15:22:58;;;;;;;0.65;0.65;;;;;;;14.58;81.02;96174.22;5060808;28;20083;-70
2024/03/12 15:25:27;;;;;;;0.60;0.60;;;;;;;14.30;81.16;96200.44;5060404;28;20071;-69
2024/03/12 15:27:54;;;;;;;0.60;0.60;;;;;;;13.41;85.19;96163.47;5060590;28;20055;-69
2024/03/12 15:30:21;;;;;;;0.60;0.60;;;;;;;13.52;84.51;96147.47;5064640;28;20507;-70
2024/03/12 15:32:49;;;;;;;0.60;0.60;;;;;;;13.97;84.19;96256.84;5081472;28;20151;-69
2024/03/12 15:35:16;;;;;;;0.68;0.68;;;;;;;14.13;84.54;96203.38;5065933;28;20059;-69
2024/03/12 15:37:43;;;;;;;0.60;0.60;;;;;;;14.24;83.19;96198.47;5066158;28;20107;-70
2024/03/12 15:40:11;;;;;;;0.70;0.70;;;;;;;14.26;82.75;96218.34;5065794;28;20076;-70
2024/03/12 15:42:41;;;;;;;0.60;0.60;;;;;;;14.14;83.41;96210.50;5066054;28;20053;-70
2024/03/12 15:45:11;;;;;;;0.60;0.60;;;;;;;14.12;83.74;96207.34;5065855;28;20395;-70
2024/03/12 15:47:39;;;;;;;0.60;0.60;;;;;;;13.88;82.89;96170.19;5081049;28;20079;-70
2024/03/12 15:50:07;;;;;;;0.60;0.60;;;;;;;13.93;81.35;96200.38;5072174;28;20145;-70
2024/03/12 15:52:34;;;;;;;0.60;0.60;;;;;;;13.31;81.97;96114.28;5084196;28;20060;-69
2024/03/12 15:55:01;;;;;;;0.60;0.60;;;;;;;13.46;81.79;96131.63;5084374;28;20143;-70
2024/03/12 15:57:29;;;;;;;0.60;0.60;;;;;;;13.83;80.52;96189.34;5084318;28;20067;-69
2024/03/12 15:59:56;;;;;;;0.60;0.60;;;;;;;13.36;81.28;96205.63;5084066;28;20135;-70
2024/03/12 16:02:23;;;;;;;0.60;0.60;;;;;;;13.01;80.98;96105.78;5086183;28;20044;-70
2024/03/12 16:04:50;;;;;;;0.60;0.60;;;;;;;12.57;80.93;96041.75;5085639;28;20664;-69
2024/03/12 16:07:18;;;;;;;0.60;0.60;;;;;;;13.64;82.10;96199.84;5084548;28;20064;-69
2024/03/12 16:09:45;;;;;;;0.60;0.60;;;;;;;13.58;82.21;96201.47;5086015;28;20052;-69
2024/03/12 16:12:13;;;;;;;0.60;0.60;;;;;;;13.44;82.50;96186.88;5085312;28;20142;-69
2024/03/12 16:14:41;;;;;;;0.60;0.60;;;;;;;13.52;82.35;96200.34;5085235;28;20113;-69
2024/03/12 16:17:09;;;;;;;0.60;0.60;;;;;;;13.47;82.78;96200.78;5085408;28;20060;-68
2024/03/12 16:19:36;;;;;;;0.60;0.60;;;;;;;13.45;82.66;96208.72;5085363;28;20403;-70
2024/03/12 16:22:03;;;;;;;0.60;0.60;;;;;;;12.97;83.67;96143.91;5072670;28;20083;-70
2024/03/12 16:24:30;;;;;;;0.60;0.60;;;;;;;13.12;83.31;96162.09;5084410;28;20387;-69
2024/03/12 16:26:59;;;;;;;0.50;0.50;;;;;;;13.21;84.40;96206.94;5083662;28;20079;-69
2024/03/12 16:29:28;;;;;;;0.50;0.50;;;;;;;13.02;84.06;96190.78;5084818;28;20044;-69
2024/03/12 16:31:55;;;;;;;0.60;0.60;;;;;;;13.13;84.52;96212.94;5085199;28;20063;-69
2024/03/12 16:34:25;;;;;;;0.60;0.60;;;;;;;13.04;85.25;96216.16;5085311;28;20169;-69
2024/03/12 16:36:56;;;;;;;0.60;0.60;;;;;;;12.87;85.58;96202.34;5083735;28;20113;-70
2024/03/12 16:39:23;;;;;;;0.52;0.52;;;;;;;12.98;85.88;96222.53;5084790;28;20076;-68
2024/03/12 16:41:56;;;;;;;0.60;0.60;;;;;;;12.76;86.66;96194.06;5084674;28;20074;-68
2024/03/12 16:44:26;;;;;;;0.60;0.60;;;;;;;12.96;86.45;96228.50;5085470;28;20079;-68
2024/03/12 16:46:54;;;;;;;0.50;0.50;;;;;;;12.90;86.60;96230.13;5085673;28;20129;-67
2024/03/12 16:49:21;;;;;;;0.57;0.57;;;;;;;12.59;88.86;96199.69;5083517;28;20048;-68